sensor_id;sensor_type;location;lat;lon;timestamp;temperature;humidity
22974;DHT22;11653;50.848;4.584;2023-08-12T00:00:19;22.80;99.90
22974;DHT22;11653;50.848;4.584;2023-08-12T00:02:45;22.80;99.90
22974;DHT22;11653;50.848;4.584;2023-08-12T00:05:11;22.70;99.90
22974;DHT22;11653;50.848;4.584;2023-08-12T00:07:38;22.70;99.90
22974;DHT22;11653;50.848;4.584;2023-08-12T00:10:04;22.60;99.90
22974;DHT22;11653;50.848;4.584;2023-08-12T00:12:34;22.60;99.90
22974;DHT22;11653;50.848;4.584;2023-08-12T00:15:00;22.60;99.90
22974;DHT22;11653;50.848;4.584;2023-08-12T00:17:26;22.60;99.90
22974;DHT22;11653;50.848;4.584;2023-08-12T00:19:52;22.70;99.90
22974;DHT22;11653;50.848;4.584;2023-08-12T00:22:18;22.70;99.90
22974;DHT22;11653;50.848;4.584;2023-08-12T00:24:44;22.70;99.90
22974;DHT22;11653;50.848;4.584;2023-08-12T00:27:10;22.70;99.90
22974;DHT22;11653;50.848;4.584;2023-08-12T00:29:36;22.70;99.90
22974;DHT22;11653;50.848;4.584;2023-08-12T00:32:02;22.70;99.90
22974;DHT22;11653;50.848;4.584;2023-08-12T00:34:28;22.70;99.90
22974;DHT22;11653;50.848;4.584;2023-08-12T00:36:54;22.60;99.90
22974;DHT22;11653;50.848;4.584;2023-08-12T00:39:19;22.60;99.90
22974;DHT22;11653;50.848;4.584;2023-08-12T00:41:45;22.50;99.90
22974;DHT22;11653;50.848;4.584;2023-08-12T00:44:11;22.50;99.90
22974;DHT22;11653;50.848;4.584;2023-08-12T00:46:38;22.50;99.90
22974;DHT22;11653;50.848;4.584;2023-08-12T00:49:05;22.60;99.90
22974;DHT22;11653;50.848;4.584;2023-08-12T00:51:31;22.60;99.90
22974;DHT22;11653;50.848;4.584;2023-08-12T00:53:58;22.60;99.90
22974;DHT22;11653;50.848;4.584;2023-08-12T00:56:25;22.60;99.90
22974;DHT22;11653;50.848;4.584;2023-08-12T00:58:52;22.60;99.90
22974;DHT22;11653;50.848;4.584;2023-08-12T01:01:19;22.60;99.90
22974;DHT22;11653;50.848;4.584;2023-08-12T01:03:45;22.60;99.90
22974;DHT22;11653;50.848;4.584;2023-08-12T01:06:11;22.60;99.90
22974;DHT22;11653;50.848;4.584;2023-08-12T01:08:37;22.60;99.90
22974;DHT22;11653;50.848;4.584;2023-08-12T01:11:36;22.60;99.90
22974;DHT22;11653;50.848;4.584;2023-08-12T01:14:08;22.60;99.90
22974;DHT22;11653;50.848;4.584;2023-08-12T01:16:42;22.60;99.90
22974;DHT22;11653;50.848;4.584;2023-08-12T01:19:11;22.60;99.90
22974;DHT22;11653;50.848;4.584;2023-08-12T01:21:42;22.60;99.90
22974;DHT22;11653;50.848;4.584;2023-08-12T01:24:09;22.60;99.90
22974;DHT22;11653;50.848;4.584;2023-08-12T01:26:35;22.50;99.90
22974;DHT22;11653;50.848;4.584;2023-08-12T01:29:00;22.50;99.90
22974;DHT22;11653;50.848;4.584;2023-08-12T01:31:29;22.50;99.90
22974;DHT22;11653;50.848;4.584;2023-08-12T01:34:14;22.50;99.90
22974;DHT22;11653;50.848;4.584;2023-08-12T01:36:46;22.50;99.90
22974;DHT22;11653;50.848;4.584;2023-08-12T01:39:12;22.50;99.90
22974;DHT22;11653;50.848;4.584;2023-08-12T01:41:39;22.50;99.90
22974;DHT22;11653;50.848;4.584;2023-08-12T01:44:05;22.50;99.90
22974;DHT22;11653;50.848;4.584;2023-08-12T01:46:31;22.50;99.90
22974;DHT22;11653;50.848;4.584;2023-08-12T01:48:56;22.50;99.90
22974;DHT22;11653;50.848;4.584;2023-08-12T01:51:22;22.50;99.90
22974;DHT22;11653;50.848;4.584;2023-08-12T01:53:48;22.40;99.90
22974;DHT22;11653;50.848;4.584;2023-08-12T01:56:13;22.40;99.90
22974;DHT22;11653;50.848;4.584;2023-08-12T01:58:39;22.40;99.90
22974;DHT22;11653;50.848;4.584;2023-08-12T02:01:05;22.50;99.90
22974;DHT22;11653;50.848;4.584;2023-08-12T02:03:30;22.40;99.90
22974;DHT22;11653;50.848;4.584;2023-08-12T02:05:56;22.40;99.90
22974;DHT22;11653;50.848;4.584;2023-08-12T02:08:21;22.30;99.90
22974;DHT22;11653;50.848;4.584;2023-08-12T02:10:47;22.30;99.90
22974;DHT22;11653;50.848;4.584;2023-08-12T02:13:13;22.30;99.90
22974;DHT22;11653;50.848;4.584;2023-08-12T02:15:38;22.30;99.90
22974;DHT22;11653;50.848;4.584;2023-08-12T02:18:04;22.40;99.90
22974;DHT22;11653;50.848;4.584;2023-08-12T02:20:30;22.40;99.90
22974;DHT22;11653;50.848;4.584;2023-08-12T02:22:55;22.40;99.90
22974;DHT22;11653;50.848;4.584;2023-08-12T02:25:21;22.30;99.90
22974;DHT22;11653;50.848;4.584;2023-08-12T02:27:47;22.40;99.90
22974;DHT22;11653;50.848;4.584;2023-08-12T02:30:12;22.40;99.90
22974;DHT22;11653;50.848;4.584;2023-08-12T02:32:38;22.40;99.90
22974;DHT22;11653;50.848;4.584;2023-08-12T02:35:04;22.30;99.90
22974;DHT22;11653;50.848;4.584;2023-08-12T02:37:29;22.30;99.90
22974;DHT22;11653;50.848;4.584;2023-08-12T02:39:55;22.40;99.90
22974;DHT22;11653;50.848;4.584;2023-08-12T02:42:21;22.40;99.90
22974;DHT22;11653;50.848;4.584;2023-08-12T02:44:46;22.40;99.90
22974;DHT22;11653;50.848;4.584;2023-08-12T02:47:12;22.40;99.90
22974;DHT22;11653;50.848;4.584;2023-08-12T02:49:37;22.40;99.90
22974;DHT22;11653;50.848;4.584;2023-08-12T02:52:03;22.30;99.90
22974;DHT22;11653;50.848;4.584;2023-08-12T02:54:29;22.40;99.90
22974;DHT22;11653;50.848;4.584;2023-08-12T02:56:54;22.40;99.90
22974;DHT22;11653;50.848;4.584;2023-08-12T02:59:20;22.40;99.90
22974;DHT22;11653;50.848;4.584;2023-08-12T03:01:46;22.40;99.90
22974;DHT22;11653;50.848;4.584;2023-08-12T03:04:11;22.40;99.90
22974;DHT22;11653;50.848;4.584;2023-08-12T03:06:37;22.40;99.90
22974;DHT22;11653;50.848;4.584;2023-08-12T03:09:03;22.40;99.90
22974;DHT22;11653;50.848;4.584;2023-08-12T03:11:28;22.40;99.90
22974;DHT22;11653;50.848;4.584;2023-08-12T03:13:54;22.40;99.90
22974;DHT22;11653;50.848;4.584;2023-08-12T03:16:20;22.40;99.90
22974;DHT22;11653;50.848;4.584;2023-08-12T03:18:45;22.30;99.90
22974;DHT22;11653;50.848;4.584;2023-08-12T03:21:11;22.30;99.90
22974;DHT22;11653;50.848;4.584;2023-08-12T03:23:37;22.30;99.90
22974;DHT22;11653;50.848;4.584;2023-08-12T03:26:06;22.30;99.90
22974;DHT22;11653;50.848;4.584;2023-08-12T03:28:32;22.30;99.90
22974;DHT22;11653;50.848;4.584;2023-08-12T03:30:57;22.30;99.90
22974;DHT22;11653;50.848;4.584;2023-08-12T03:33:23;22.30;99.90
22974;DHT22;11653;50.848;4.584;2023-08-12T03:35:49;22.30;99.90
22974;DHT22;11653;50.848;4.584;2023-08-12T03:38:15;22.30;99.90
22974;DHT22;11653;50.848;4.584;2023-08-12T03:40:43;22.30;99.90
22974;DHT22;11653;50.848;4.584;2023-08-12T03:43:09;22.30;99.90
22974;DHT22;11653;50.848;4.584;2023-08-12T03:45:41;22.30;99.90
22974;DHT22;11653;50.848;4.584;2023-08-12T03:48:07;22.40;99.90
22974;DHT22;11653;50.848;4.584;2023-08-12T03:50:40;22.30;99.90
22974;DHT22;11653;50.848;4.584;2023-08-12T03:53:06;22.40;99.90
22974;DHT22;11653;50.848;4.584;2023-08-12T03:55:33;22.40;99.90
22974;DHT22;11653;50.848;4.584;2023-08-12T03:58:01;22.40;99.90
22974;DHT22;11653;50.848;4.584;2023-08-12T04:00:27;22.50;99.90
22974;DHT22;11653;50.848;4.584;2023-08-12T04:02:53;22.50;99.90
22974;DHT22;11653;50.848;4.584;2023-08-12T04:05:19;22.40;99.90
22974;DHT22;11653;50.848;4.584;2023-08-12T04:07:45;22.40;99.90
22974;DHT22;11653;50.848;4.584;2023-08-12T04:10:10;22.30;99.90
22974;DHT22;11653;50.848;4.584;2023-08-12T04:12:37;22.20;99.90
22974;DHT22;11653;50.848;4.584;2023-08-12T04:15:02;22.20;99.90
22974;DHT22;11653;50.848;4.584;2023-08-12T04:17:31;22.20;99.90
22974;DHT22;11653;50.848;4.584;2023-08-12T04:19:57;22.10;99.90
22974;DHT22;11653;50.848;4.584;2023-08-12T04:22:23;22.10;99.90
22974;DHT22;11653;50.848;4.584;2023-08-12T04:24:48;22.10;99.90
22974;DHT22;11653;50.848;4.584;2023-08-12T04:27:14;22.00;99.90
22974;DHT22;11653;50.848;4.584;2023-08-12T04:29:42;22.00;99.90
22974;DHT22;11653;50.848;4.584;2023-08-12T04:32:07;22.00;99.90
22974;DHT22;11653;50.848;4.584;2023-08-12T04:34:33;21.90;99.90
22974;DHT22;11653;50.848;4.584;2023-08-12T04:36:59;22.00;99.90
22974;DHT22;11653;50.848;4.584;2023-08-12T04:39:24;21.90;99.90
22974;DHT22;11653;50.848;4.584;2023-08-12T04:41:51;21.90;99.90
22974;DHT22;11653;50.848;4.584;2023-08-12T04:44:16;21.80;99.90
22974;DHT22;11653;50.848;4.584;2023-08-12T04:46:42;21.80;99.90
22974;DHT22;11653;50.848;4.584;2023-08-12T04:49:08;21.70;99.90
22974;DHT22;11653;50.848;4.584;2023-08-12T04:51:34;21.60;99.90
22974;DHT22;11653;50.848;4.584;2023-08-12T04:54:00;21.60;99.90
22974;DHT22;11653;50.848;4.584;2023-08-12T04:56:27;21.60;99.90
22974;DHT22;11653;50.848;4.584;2023-08-12T04:58:55;21.60;99.90
22974;DHT22;11653;50.848;4.584;2023-08-12T05:01:20;21.50;99.90
22974;DHT22;11653;50.848;4.584;2023-08-12T05:03:47;21.50;99.90
22974;DHT22;11653;50.848;4.584;2023-08-12T05:06:12;21.50;99.90
22974;DHT22;11653;50.848;4.584;2023-08-12T05:08:38;21.50;99.90
22974;DHT22;11653;50.848;4.584;2023-08-12T05:11:03;21.50;99.90
22974;DHT22;11653;50.848;4.584;2023-08-12T05:13:29;21.60;99.90
22974;DHT22;11653;50.848;4.584;2023-08-12T05:15:56;21.60;99.90
22974;DHT22;11653;50.848;4.584;2023-08-12T05:18:22;21.60;99.90
22974;DHT22;11653;50.848;4.584;2023-08-12T05:20:52;21.60;99.90
22974;DHT22;11653;50.848;4.584;2023-08-12T05:23:20;21.60;99.90
22974;DHT22;11653;50.848;4.584;2023-08-12T05:25:45;21.60;99.90
22974;DHT22;11653;50.848;4.584;2023-08-12T05:28:11;21.60;99.90
22974;DHT22;11653;50.848;4.584;2023-08-12T05:30:37;21.60;99.90
22974;DHT22;11653;50.848;4.584;2023-08-12T05:33:04;21.60;99.90
22974;DHT22;11653;50.848;4.584;2023-08-12T05:35:36;21.70;99.90
22974;DHT22;11653;50.848;4.584;2023-08-12T05:38:02;21.70;99.90
22974;DHT22;11653;50.848;4.584;2023-08-12T05:40:28;21.60;99.90
22974;DHT22;11653;50.848;4.584;2023-08-12T05:42:54;21.70;99.90
22974;DHT22;11653;50.848;4.584;2023-08-12T05:45:19;21.70;99.90
22974;DHT22;11653;50.848;4.584;2023-08-12T05:47:45;21.70;99.90
22974;DHT22;11653;50.848;4.584;2023-08-12T05:50:11;21.60;99.90
22974;DHT22;11653;50.848;4.584;2023-08-12T05:52:36;21.70;99.90
22974;DHT22;11653;50.848;4.584;2023-08-12T05:55:02;21.70;99.90
22974;DHT22;11653;50.848;4.584;2023-08-12T05:57:28;21.80;99.90
22974;DHT22;11653;50.848;4.584;2023-08-12T05:59:54;21.90;99.90
22974;DHT22;11653;50.848;4.584;2023-08-12T06:02:19;21.90;99.90
22974;DHT22;11653;50.848;4.584;2023-08-12T06:04:45;21.90;99.90
22974;DHT22;11653;50.848;4.584;2023-08-12T06:07:10;21.90;99.90
22974;DHT22;11653;50.848;4.584;2023-08-12T06:09:36;21.90;99.90
22974;DHT22;11653;50.848;4.584;2023-08-12T06:12:02;21.80;99.90
22974;DHT22;11653;50.848;4.584;2023-08-12T06:14:28;21.80;99.90
22974;DHT22;11653;50.848;4.584;2023-08-12T06:16:54;21.90;99.90
22974;DHT22;11653;50.848;4.584;2023-08-12T06:19:19;21.90;99.90
22974;DHT22;11653;50.848;4.584;2023-08-12T06:21:45;21.80;99.90
22974;DHT22;11653;50.848;4.584;2023-08-12T06:24:11;21.90;99.90
22974;DHT22;11653;50.848;4.584;2023-08-12T06:26:37;21.90;99.90
22974;DHT22;11653;50.848;4.584;2023-08-12T06:29:02;22.10;99.90
22974;DHT22;11653;50.848;4.584;2023-08-12T06:31:28;22.10;99.90
22974;DHT22;11653;50.848;4.584;2023-08-12T06:33:54;22.10;99.90
22974;DHT22;11653;50.848;4.584;2023-08-12T06:36:19;22.10;99.90
22974;DHT22;11653;50.848;4.584;2023-08-12T06:38:45;22.10;99.90
22974;DHT22;11653;50.848;4.584;2023-08-12T06:41:11;22.10;99.90
22974;DHT22;11653;50.848;4.584;2023-08-12T06:43:36;22.10;99.90
22974;DHT22;11653;50.848;4.584;2023-08-12T06:46:02;22.20;99.90
22974;DHT22;11653;50.848;4.584;2023-08-12T06:48:28;22.20;99.90
22974;DHT22;11653;50.848;4.584;2023-08-12T06:50:55;22.20;99.90
22974;DHT22;11653;50.848;4.584;2023-08-12T06:53:21;22.20;99.90
22974;DHT22;11653;50.848;4.584;2023-08-12T06:55:47;22.30;99.90
22974;DHT22;11653;50.848;4.584;2023-08-12T06:58:14;22.40;99.90
22974;DHT22;11653;50.848;4.584;2023-08-12T07:00:42;22.50;99.90
22974;DHT22;11653;50.848;4.584;2023-08-12T07:03:08;22.60;99.90
22974;DHT22;11653;50.848;4.584;2023-08-12T07:05:34;22.70;99.90
22974;DHT22;11653;50.848;4.584;2023-08-12T07:08:00;22.80;99.90
22974;DHT22;11653;50.848;4.584;2023-08-12T07:10:25;22.80;99.90
22974;DHT22;11653;50.848;4.584;2023-08-12T07:12:51;22.80;99.90
22974;DHT22;11653;50.848;4.584;2023-08-12T07:15:17;22.80;99.90
22974;DHT22;11653;50.848;4.584;2023-08-12T07:17:42;22.70;99.90
22974;DHT22;11653;50.848;4.584;2023-08-12T07:20:08;22.70;99.90
22974;DHT22;11653;50.848;4.584;2023-08-12T07:22:34;22.70;99.90
22974;DHT22;11653;50.848;4.584;2023-08-12T07:25:00;22.70;99.90
22974;DHT22;11653;50.848;4.584;2023-08-12T07:27:28;22.80;99.90
22974;DHT22;11653;50.848;4.584;2023-08-12T07:29:54;22.80;99.90
22974;DHT22;11653;50.848;4.584;2023-08-12T07:32:20;23.00;99.90
22974;DHT22;11653;50.848;4.584;2023-08-12T07:34:46;23.00;99.90
22974;DHT22;11653;50.848;4.584;2023-08-12T07:37:12;23.00;99.90
22974;DHT22;11653;50.848;4.584;2023-08-12T07:39:37;23.10;99.90
22974;DHT22;11653;50.848;4.584;2023-08-12T07:42:03;23.10;99.90
22974;DHT22;11653;50.848;4.584;2023-08-12T07:44:29;23.20;99.90
22974;DHT22;11653;50.848;4.584;2023-08-12T07:46:55;23.20;99.90
22974;DHT22;11653;50.848;4.584;2023-08-12T07:49:21;23.20;99.90
22974;DHT22;11653;50.848;4.584;2023-08-12T07:51:47;23.00;99.90
22974;DHT22;11653;50.848;4.584;2023-08-12T07:54:13;22.70;99.90
22974;DHT22;11653;50.848;4.584;2023-08-12T07:56:38;22.60;99.90
22974;DHT22;11653;50.848;4.584;2023-08-12T07:59:04;22.20;99.90
22974;DHT22;11653;50.848;4.584;2023-08-12T08:01:30;21.90;99.90
22974;DHT22;11653;50.848;4.584;2023-08-12T08:03:55;21.70;99.90
22974;DHT22;11653;50.848;4.584;2023-08-12T08:06:22;21.40;99.90
22974;DHT22;11653;50.848;4.584;2023-08-12T08:08:51;21.30;99.90
22974;DHT22;11653;50.848;4.584;2023-08-12T08:11:16;21.30;99.90
22974;DHT22;11653;50.848;4.584;2023-08-12T08:13:42;21.40;99.90
22974;DHT22;11653;50.848;4.584;2023-08-12T08:16:08;21.50;99.90
22974;DHT22;11653;50.848;4.584;2023-08-12T08:18:33;21.50;99.90
22974;DHT22;11653;50.848;4.584;2023-08-12T08:20:59;21.50;99.90
22974;DHT22;11653;50.848;4.584;2023-08-12T08:23:25;21.60;99.90
22974;DHT22;11653;50.848;4.584;2023-08-12T08:25:51;21.70;99.90
22974;DHT22;11653;50.848;4.584;2023-08-12T08:28:17;21.60;99.90
22974;DHT22;11653;50.848;4.584;2023-08-12T08:30:43;21.70;99.90
22974;DHT22;11653;50.848;4.584;2023-08-12T08:33:08;21.70;99.90
22974;DHT22;11653;50.848;4.584;2023-08-12T08:35:34;21.80;99.90
22974;DHT22;11653;50.848;4.584;2023-08-12T08:38:00;21.80;99.90
22974;DHT22;11653;50.848;4.584;2023-08-12T08:40:26;21.80;99.90
22974;DHT22;11653;50.848;4.584;2023-08-12T08:42:52;21.80;99.90
22974;DHT22;11653;50.848;4.584;2023-08-12T08:45:21;21.90;99.90
22974;DHT22;11653;50.848;4.584;2023-08-12T08:47:55;22.10;99.90
22974;DHT22;11653;50.848;4.584;2023-08-12T08:50:21;22.20;99.90
22974;DHT22;11653;50.848;4.584;2023-08-12T08:52:51;22.30;99.90
22974;DHT22;11653;50.848;4.584;2023-08-12T08:55:18;22.60;99.90
22974;DHT22;11653;50.848;4.584;2023-08-12T08:57:46;22.70;99.90
22974;DHT22;11653;50.848;4.584;2023-08-12T09:00:12;22.80;99.90
22974;DHT22;11653;50.848;4.584;2023-08-12T09:02:41;22.80;99.90
22974;DHT22;11653;50.848;4.584;2023-08-12T09:05:08;22.80;99.90
22974;DHT22;11653;50.848;4.584;2023-08-12T09:07:34;22.80;99.90
22974;DHT22;11653;50.848;4.584;2023-08-12T09:10:01;22.80;99.90
22974;DHT22;11653;50.848;4.584;2023-08-12T09:12:29;22.70;99.90
22974;DHT22;11653;50.848;4.584;2023-08-12T09:14:55;22.50;99.90
22974;DHT22;11653;50.848;4.584;2023-08-12T09:17:21;22.40;99.90
22974;DHT22;11653;50.848;4.584;2023-08-12T09:19:47;22.30;99.90
22974;DHT22;11653;50.848;4.584;2023-08-12T09:22:12;22.40;99.90
22974;DHT22;11653;50.848;4.584;2023-08-12T09:24:38;22.70;99.90
22974;DHT22;11653;50.848;4.584;2023-08-12T09:27:04;22.80;99.90
22974;DHT22;11653;50.848;4.584;2023-08-12T09:29:31;22.80;99.90
22974;DHT22;11653;50.848;4.584;2023-08-12T09:32:13;22.70;99.90
22974;DHT22;11653;50.848;4.584;2023-08-12T09:34:55;22.60;99.90
22974;DHT22;11653;50.848;4.584;2023-08-12T09:37:24;22.30;99.90
22974;DHT22;11653;50.848;4.584;2023-08-12T09:39:51;22.30;99.90
22974;DHT22;11653;50.848;4.584;2023-08-12T09:42:17;22.10;99.90
22974;DHT22;11653;50.848;4.584;2023-08-12T09:44:43;22.10;99.90
22974;DHT22;11653;50.848;4.584;2023-08-12T09:47:12;22.10;99.90
22974;DHT22;11653;50.848;4.584;2023-08-12T09:49:40;22.20;99.90
22974;DHT22;11653;50.848;4.584;2023-08-12T09:52:11;22.40;99.90
22974;DHT22;11653;50.848;4.584;2023-08-12T09:54:39;22.40;99.90
22974;DHT22;11653;50.848;4.584;2023-08-12T09:57:08;22.40;99.90
22974;DHT22;11653;50.848;4.584;2023-08-12T09:59:38;22.40;99.90
22974;DHT22;11653;50.848;4.584;2023-08-12T10:02:04;22.30;99.90
22974;DHT22;11653;50.848;4.584;2023-08-12T10:04:41;22.20;99.90
22974;DHT22;11653;50.848;4.584;2023-08-12T10:07:09;22.20;99.90
22974;DHT22;11653;50.848;4.584;2023-08-12T10:09:36;22.10;99.90
22974;DHT22;11653;50.848;4.584;2023-08-12T10:12:04;22.00;99.90
22974;DHT22;11653;50.848;4.584;2023-08-12T10:14:30;22.10;99.90
22974;DHT22;11653;50.848;4.584;2023-08-12T10:16:59;22.20;99.90
22974;DHT22;11653;50.848;4.584;2023-08-12T10:19:26;22.40;99.90
22974;DHT22;11653;50.848;4.584;2023-08-12T10:21:56;22.50;99.90
22974;DHT22;11653;50.848;4.584;2023-08-12T10:24:26;22.70;99.90
22974;DHT22;11653;50.848;4.584;2023-08-12T10:26:52;23.00;99.90
22974;DHT22;11653;50.848;4.584;2023-08-12T10:29:19;23.20;99.90
22974;DHT22;11653;50.848;4.584;2023-08-12T10:31:47;23.20;99.90
22974;DHT22;11653;50.848;4.584;2023-08-12T10:34:23;23.20;99.90
22974;DHT22;11653;50.848;4.584;2023-08-12T10:36:54;23.30;99.90
22974;DHT22;11653;50.848;4.584;2023-08-12T10:39:28;23.30;99.90
22974;DHT22;11653;50.848;4.584;2023-08-12T10:41:57;23.40;99.90
22974;DHT22;11653;50.848;4.584;2023-08-12T10:44:49;23.80;99.90
22974;DHT22;11653;50.848;4.584;2023-08-12T10:47:19;24.40;99.90
22974;DHT22;11653;50.848;4.584;2023-08-12T10:49:49;25.10;99.90
22974;DHT22;11653;50.848;4.584;2023-08-12T10:52:41;25.60;99.90
22974;DHT22;11653;50.848;4.584;2023-08-12T10:55:36;26.10;99.90
22974;DHT22;11653;50.848;4.584;2023-08-12T10:58:08;26.50;99.90
22974;DHT22;11653;50.848;4.584;2023-08-12T11:00:35;26.40;99.90
22974;DHT22;11653;50.848;4.584;2023-08-12T11:03:05;26.30;99.90
22974;DHT22;11653;50.848;4.584;2023-08-12T11:05:37;26.60;99.90
22974;DHT22;11653;50.848;4.584;2023-08-12T11:08:05;26.80;99.90
22974;DHT22;11653;50.848;4.584;2023-08-12T11:10:33;26.90;99.90
22974;DHT22;11653;50.848;4.584;2023-08-12T11:13:00;27.40;99.90
22974;DHT22;11653;50.848;4.584;2023-08-12T11:15:33;28.50;99.90
22974;DHT22;11653;50.848;4.584;2023-08-12T11:18:07;30.00;99.90
22974;DHT22;11653;50.848;4.584;2023-08-12T11:20:34;31.30;99.90
22974;DHT22;11653;50.848;4.584;2023-08-12T11:23:00;32.60;99.90
22974;DHT22;11653;50.848;4.584;2023-08-12T11:25:28;33.40;98.00
22974;DHT22;11653;50.848;4.584;2023-08-12T11:27:55;34.00;97.00
22974;DHT22;11653;50.848;4.584;2023-08-12T11:30:21;34.60;94.70
22974;DHT22;11653;50.848;4.584;2023-08-12T11:32:52;34.90;92.60
22974;DHT22;11653;50.848;4.584;2023-08-12T11:35:19;34.60;91.20
22974;DHT22;11653;50.848;4.584;2023-08-12T11:37:47;34.40;92.00
22974;DHT22;11653;50.848;4.584;2023-08-12T11:40:16;33.90;92.90
22974;DHT22;11653;50.848;4.584;2023-08-12T11:42:43;34.30;91.20
22974;DHT22;11653;50.848;4.584;2023-08-12T11:45:10;35.20;87.20
22974;DHT22;11653;50.848;4.584;2023-08-12T11:47:38;35.60;84.70
22974;DHT22;11653;50.848;4.584;2023-08-12T11:50:08;35.80;87.30
22974;DHT22;11653;50.848;4.584;2023-08-12T11:52:34;36.40;83.10
22974;DHT22;11653;50.848;4.584;2023-08-12T11:55:01;37.00;77.10
22974;DHT22;11653;50.848;4.584;2023-08-12T11:57:27;36.40;76.00
22974;DHT22;11653;50.848;4.584;2023-08-12T11:59:58;36.20;80.30
22974;DHT22;11653;50.848;4.584;2023-08-12T12:02:25;36.50;76.40
22974;DHT22;11653;50.848;4.584;2023-08-12T12:04:54;36.60;77.00
22974;DHT22;11653;50.848;4.584;2023-08-12T12:07:24;35.90;75.20
22974;DHT22;11653;50.848;4.584;2023-08-12T12:09:54;34.90;80.30
22974;DHT22;11653;50.848;4.584;2023-08-12T12:12:24;34.50;81.20
22974;DHT22;11653;50.848;4.584;2023-08-12T12:14:53;34.70;82.50
22974;DHT22;11653;50.848;4.584;2023-08-12T12:17:22;34.50;82.40
22974;DHT22;11653;50.848;4.584;2023-08-12T12:19:55;34.20;82.40
22974;DHT22;11653;50.848;4.584;2023-08-12T12:22:29;33.40;80.60
22974;DHT22;11653;50.848;4.584;2023-08-12T12:24:58;32.50;85.80
22974;DHT22;11653;50.848;4.584;2023-08-12T12:27:24;31.60;85.60
22974;DHT22;11653;50.848;4.584;2023-08-12T12:29:50;30.90;91.40
22974;DHT22;11653;50.848;4.584;2023-08-12T12:32:18;30.50;92.80
22974;DHT22;11653;50.848;4.584;2023-08-12T12:34:45;30.10;93.10
22974;DHT22;11653;50.848;4.584;2023-08-12T12:37:10;29.20;94.00
22974;DHT22;11653;50.848;4.584;2023-08-12T12:39:36;28.60;97.00
22974;DHT22;11653;50.848;4.584;2023-08-12T12:42:02;28.20;97.40
22974;DHT22;11653;50.848;4.584;2023-08-12T12:44:27;27.60;97.90
22974;DHT22;11653;50.848;4.584;2023-08-12T12:46:53;27.20;98.70
22974;DHT22;11653;50.848;4.584;2023-08-12T12:49:19;26.90;99.90
22974;DHT22;11653;50.848;4.584;2023-08-12T12:51:45;26.80;99.90
22974;DHT22;11653;50.848;4.584;2023-08-12T12:54:11;26.70;99.90
22974;DHT22;11653;50.848;4.584;2023-08-12T12:56:36;26.70;99.90
22974;DHT22;11653;50.848;4.584;2023-08-12T12:59:02;26.70;99.90
22974;DHT22;11653;50.848;4.584;2023-08-12T13:01:28;26.70;99.90
22974;DHT22;11653;50.848;4.584;2023-08-12T13:03:53;26.60;99.90
22974;DHT22;11653;50.848;4.584;2023-08-12T13:06:19;26.50;99.90
22974;DHT22;11653;50.848;4.584;2023-08-12T13:08:44;26.50;99.90
22974;DHT22;11653;50.848;4.584;2023-08-12T13:11:10;26.50;99.90
22974;DHT22;11653;50.848;4.584;2023-08-12T13:13:36;26.40;99.90
22974;DHT22;11653;50.848;4.584;2023-08-12T13:16:01;26.30;99.90
22974;DHT22;11653;50.848;4.584;2023-08-12T13:18:27;26.30;99.90
22974;DHT22;11653;50.848;4.584;2023-08-12T13:20:53;26.30;99.90
22974;DHT22;11653;50.848;4.584;2023-08-12T13:23:19;26.30;99.90
22974;DHT22;11653;50.848;4.584;2023-08-12T13:25:44;26.30;99.90
22974;DHT22;11653;50.848;4.584;2023-08-12T13:28:10;26.20;99.90
22974;DHT22;11653;50.848;4.584;2023-08-12T13:30:36;26.20;99.90
22974;DHT22;11653;50.848;4.584;2023-08-12T13:33:02;26.10;99.90
22974;DHT22;11653;50.848;4.584;2023-08-12T13:35:29;26.20;99.90
22974;DHT22;11653;50.848;4.584;2023-08-12T13:37:54;26.40;99.90
22974;DHT22;11653;50.848;4.584;2023-08-12T13:40:20;26.40;99.90
22974;DHT22;11653;50.848;4.584;2023-08-12T13:42:46;26.50;99.90
22974;DHT22;11653;50.848;4.584;2023-08-12T13:45:12;26.40;99.90
22974;DHT22;11653;50.848;4.584;2023-08-12T13:47:39;26.40;99.90
22974;DHT22;11653;50.848;4.584;2023-08-12T13:50:05;26.40;99.90
22974;DHT22;11653;50.848;4.584;2023-08-12T13:52:31;26.40;99.90
22974;DHT22;11653;50.848;4.584;2023-08-12T13:54:56;26.40;99.90
22974;DHT22;11653;50.848;4.584;2023-08-12T13:57:22;26.50;99.90
22974;DHT22;11653;50.848;4.584;2023-08-12T13:59:48;26.50;99.90
22974;DHT22;11653;50.848;4.584;2023-08-12T14:02:15;26.60;99.90
22974;DHT22;11653;50.848;4.584;2023-08-12T14:04:41;26.60;99.90
22974;DHT22;11653;50.848;4.584;2023-08-12T14:07:06;26.60;99.90
22974;DHT22;11653;50.848;4.584;2023-08-12T14:09:33;26.50;99.90
22974;DHT22;11653;50.848;4.584;2023-08-12T14:11:59;26.60;99.90
22974;DHT22;11653;50.848;4.584;2023-08-12T14:14:25;26.70;99.90
22974;DHT22;11653;50.848;4.584;2023-08-12T14:16:54;26.70;99.90
22974;DHT22;11653;50.848;4.584;2023-08-12T14:19:20;26.50;99.90
22974;DHT22;11653;50.848;4.584;2023-08-12T14:21:45;26.30;99.90
22974;DHT22;11653;50.848;4.584;2023-08-12T14:24:11;26.30;99.90
22974;DHT22;11653;50.848;4.584;2023-08-12T14:26:38;26.40;99.90
22974;DHT22;11653;50.848;4.584;2023-08-12T14:29:04;26.50;99.90
22974;DHT22;11653;50.848;4.584;2023-08-12T14:31:30;26.60;99.90
22974;DHT22;11653;50.848;4.584;2023-08-12T14:33:55;26.80;99.90
22974;DHT22;11653;50.848;4.584;2023-08-12T14:36:21;26.90;99.90
22974;DHT22;11653;50.848;4.584;2023-08-12T14:38:47;27.00;99.90
22974;DHT22;11653;50.848;4.584;2023-08-12T14:41:12;26.80;99.30
22974;DHT22;11653;50.848;4.584;2023-08-12T14:43:38;26.50;99.50
22974;DHT22;11653;50.848;4.584;2023-08-12T14:46:04;26.40;99.90
22974;DHT22;11653;50.848;4.584;2023-08-12T14:48:31;26.20;99.90
22974;DHT22;11653;50.848;4.584;2023-08-12T14:50:57;26.20;99.90
22974;DHT22;11653;50.848;4.584;2023-08-12T14:53:24;26.10;99.90
22974;DHT22;11653;50.848;4.584;2023-08-12T14:55:49;26.20;99.90
22974;DHT22;11653;50.848;4.584;2023-08-12T14:58:15;26.30;99.90
22974;DHT22;11653;50.848;4.584;2023-08-12T15:00:40;26.50;99.90
22974;DHT22;11653;50.848;4.584;2023-08-12T15:03:06;26.50;99.90
22974;DHT22;11653;50.848;4.584;2023-08-12T15:05:32;26.60;99.10
22974;DHT22;11653;50.848;4.584;2023-08-12T15:07:57;26.50;97.70
22974;DHT22;11653;50.848;4.584;2023-08-12T15:10:23;26.40;98.20
22974;DHT22;11653;50.848;4.584;2023-08-12T15:12:49;26.20;98.30
22974;DHT22;11653;50.848;4.584;2023-08-12T15:15:14;26.10;99.40
22974;DHT22;11653;50.848;4.584;2023-08-12T15:17:40;26.10;98.80
22974;DHT22;11653;50.848;4.584;2023-08-12T15:20:07;26.10;98.00
22974;DHT22;11653;50.848;4.584;2023-08-12T15:22:35;25.90;97.00
22974;DHT22;11653;50.848;4.584;2023-08-12T15:25:01;26.10;98.30
22974;DHT22;11653;50.848;4.584;2023-08-12T15:27:27;26.00;97.40